Terminal Aerodrome Forecast
Issued by NWS

Home | Current Version | Previous Version | Text Only | Print | Product List | Glossary On
Versions: 1 2 3 4 5 6 7 8 9 10 11 12 13 14 15 16 17 18 19 20 21 22 23 24 25 26 27
000
FTUS41 KOKX 301137
TAFTEB
TAF
KTEB 301137Z 3012/3112 21009KT P6SM SCT025 BKN080 BKN250
      TEMPO 3012/3014 BKN025
     FM301500 20012G19KT P6SM SCT050 BKN250
      TEMPO 3020/3022 3SM TSRA BKN030CB
     FM302200 23010KT 5SM -SHRA BR BKN040
     FM310000 24007KT 6SM BR SCT050 BKN080
     FM310400 27005KT 6SM BR FEW080
     FM310600 VRB03KT P6SM SKC=

USA.gov is the U.S. government's official web portal to all federal, state and local government web resources and services.